Archival Weather

Norman Y Mineta San Jose Intl

San Jose, California (KSJC)

Report from: Wednesday, January 31, 2024 7:53 AM PST
Current time: Monday, June 24, 2024 2:51 AM PDT

Current weather – Weather history – Daily summaries
Weather forecast

Temperature15.6°C (60.1°F)
Dew point5.0°C (41.0°F)
Winds 9 kts (4.6 m/s, 10.4 mph) South (180°)
Wind gusts 21 kts (10.8 m/s, 24.2 mph)
Visibility10 mi. (16.1 km)
Clouds Few clouds 1,800 ft. (549 m)
Ceiling: Broken clouds 3,500 ft. (1,067 m)
Overcast 12,000 ft. (3,658 m)
Altimeter29.80 in.Hg (1009 mB)
Relative humidity49 %
Density altitude340 ft. (104 m)
Sea-level pressure100.9 kPa (1009 mB, 29.80 in.Hg)
Remarks System requires maintenance
Automated weather observing station with precipitation discriminator
Flight conditions Visual Meteorological Conditions
Raw dataKSJC 311553Z 18009G21KT 10SM FEW018 BKN035 OVC120 16/05 A2980 RMK AO2 SLP091 T01560050 $
An error has occurred. This application may no longer respond until reloaded. Reload 🗙